createdAt,value
2023-05-10T00:00:57.234Z,0
2023-05-10T00:03:57.851Z,0
2023-05-10T00:06:57.326Z,0
2023-05-10T00:09:58.043Z,0
2023-05-10T00:12:57.341Z,0
2023-05-10T00:15:57.116Z,0
2023-05-10T00:18:57.251Z,0
2023-05-10T00:21:56.941Z,0
2023-05-10T00:24:56.791Z,0
2023-05-10T00:27:57.268Z,0
2023-05-10T00:30:57.148Z,0
2023-05-10T00:33:57.208Z,0
2023-05-10T00:36:56.779Z,0
2023-05-10T00:39:56.842Z,0
2023-05-10T00:42:57.361Z,0
2023-05-10T00:45:57.660Z,0
2023-05-10T00:48:57.154Z,0
2023-05-10T00:51:57.507Z,0
2023-05-10T00:54:56.849Z,0
2023-05-10T00:57:57.500Z,0
2023-05-10T01:00:57.701Z,0
2023-05-10T01:03:57.157Z,0
2023-05-10T01:07:02.583Z,0
2023-05-10T01:10:07.584Z,0
2023-05-10T01:13:12.339Z,0
2023-05-10T01:15:57.986Z,0
2023-05-10T01:18:57.349Z,0
2023-05-10T01:21:57.939Z,0
2023-05-10T01:24:57.477Z,0
2023-05-10T01:27:56.952Z,0.3333333333333333
2023-05-10T01:30:57.636Z,0
2023-05-10T01:33:57.921Z,0
2023-05-10T01:36:57.354Z,0.3333333333333333
2023-05-10T01:39:57.617Z,0
2023-05-10T01:42:57.957Z,0.3333333333333333
2023-05-10T01:45:56.865Z,1
2023-05-10T01:48:57.268Z,0
2023-05-10T01:51:57.474Z,0
2023-05-10T01:54:57.197Z,0
2023-05-10T01:57:57.252Z,0.3333333333333333
2023-05-10T02:00:58.119Z,0
2023-05-10T02:03:57.008Z,0
2023-05-10T02:06:57.540Z,0
2023-05-10T02:09:57.194Z,0
2023-05-10T02:12:56.800Z,0
2023-05-10T02:15:56.898Z,0.3333333333333333
2023-05-10T02:18:57.337Z,0
2023-05-10T02:21:57.523Z,0
2023-05-10T02:24:57.950Z,0
2023-05-10T02:27:57.383Z,0
2023-05-10T02:30:57.155Z,0.3333333333333333
2023-05-10T02:33:57.372Z,0.3333333333333333
2023-05-10T02:36:57.457Z,0
2023-05-10T02:39:58.081Z,0
2023-05-10T02:42:57.569Z,0
2023-05-10T02:45:57.188Z,0
2023-05-10T02:49:02.132Z,0.3333333333333333
2023-05-10T02:51:57.055Z,0
2023-05-10T02:54:57.028Z,0.3333333333333333
2023-05-10T02:57:57.582Z,1.3333333333333333
2023-05-10T03:00:57.092Z,0
2023-05-10T03:03:57.766Z,0
2023-05-10T03:06:57.485Z,0
2023-05-10T03:09:57.717Z,0
2023-05-10T03:12:56.791Z,0
2023-05-10T03:15:57.027Z,0.3333333333333333
2023-05-10T03:18:57.724Z,0
2023-05-10T03:21:57.426Z,0
2023-05-10T03:24:57.195Z,0
2023-05-10T03:27:57.460Z,0
2023-05-10T03:30:57.709Z,0.3333333333333333
2023-05-10T03:34:00.636Z,1
2023-05-10T03:36:56.961Z,2
2023-05-10T03:39:56.663Z,2.6666666666666665
2023-05-10T03:42:57.565Z,3.3333333333333335
2023-05-10T03:45:57.169Z,2.3333333333333335
2023-05-10T03:48:56.966Z,3
2023-05-10T03:51:57.625Z,4.333333333333333
2023-05-10T03:54:57.197Z,8.666666666666666
2023-05-10T03:57:57.276Z,12
2023-05-10T04:00:57.876Z,13.666666666666666
2023-05-10T04:03:57.354Z,15
2023-05-10T04:06:57.358Z,18.333333333333332
2023-05-10T04:09:56.793Z,19
2023-05-10T04:12:56.808Z,23
2023-05-10T04:15:56.870Z,25
2023-05-10T04:18:57.234Z,33
2023-05-10T04:21:57.614Z,59.666666666666664
2023-05-10T04:24:57.650Z,64.33333333333333
2023-05-10T04:27:57.612Z,57
2023-05-10T04:30:57.073Z,70.33333333333333
2023-05-10T04:33:57.354Z,52
2023-05-10T04:36:59.618Z,50.666666666666664
2023-05-10T04:39:57.405Z,45.666666666666664
2023-05-10T04:42:56.826Z,65.66666666666667
2023-05-10T04:45:57.552Z,64.33333333333333
2023-05-10T04:48:57.477Z,63
2023-05-10T04:51:57.401Z,86.66666666666667
2023-05-10T04:54:57.195Z,75.33333333333333
2023-05-10T04:57:57.640Z,65
2023-05-10T05:00:57.548Z,86.66666666666667
2023-05-10T05:03:57.891Z,90.33333333333333
2023-05-10T05:06:57.184Z,157
2023-05-10T05:09:57.392Z,167
2023-05-10T05:12:58.016Z,156.33333333333334
2023-05-10T05:15:57.916Z,221.33333333333334
2023-05-10T05:18:58.014Z,265.6666666666667
2023-05-10T05:21:57.102Z,261.6666666666667
2023-05-10T05:24:57.486Z,231.66666666666666
2023-05-10T05:27:56.945Z,229
2023-05-10T05:30:57.757Z,237.33333333333334
2023-05-10T05:33:57.662Z,196.66666666666666
2023-05-10T05:36:56.801Z,312
2023-05-10T05:39:57.614Z,252
2023-05-10T05:42:57.469Z,224.33333333333334
2023-05-10T05:45:58.957Z,219.66666666666666
2023-05-10T05:48:58.084Z,179.66666666666666
2023-05-10T05:51:57.575Z,293
2023-05-10T05:54:57.140Z,352
2023-05-10T05:57:57.435Z,416.3333333333333
2023-05-10T06:00:57.482Z,359.6666666666667
2023-05-10T06:03:57.845Z,340.3333333333333
2023-05-10T06:06:57.219Z,311.6666666666667
2023-05-10T06:09:57.688Z,290
2023-05-10T06:12:57.235Z,242
2023-05-10T06:15:58.027Z,271.6666666666667
2023-05-10T06:18:57.367Z,355.3333333333333
2023-05-10T06:21:57.538Z,433.6666666666667
2023-05-10T06:24:57.838Z,509.6666666666667
2023-05-10T06:27:57.516Z,549
2023-05-10T06:30:57.919Z,632.3333333333334
2023-05-10T06:33:57.195Z,714.3333333333334
2023-05-10T06:36:57.985Z,659
2023-05-10T06:39:57.834Z,606.3333333333334
2023-05-10T06:42:57.431Z,517.3333333333334
2023-05-10T06:45:57.459Z,525.3333333333334
2023-05-10T06:48:56.938Z,599.3333333333334
2023-05-10T06:51:57.913Z,574.3333333333334
2023-05-10T06:54:57.547Z,630
2023-05-10T06:57:57.427Z,798
2023-05-10T07:00:57.902Z,888
2023-05-10T07:03:57.062Z,927
2023-05-10T07:06:57.570Z,899
2023-05-10T07:09:57.397Z,898.6666666666666
2023-05-10T07:12:56.691Z,920
2023-05-10T07:15:57.335Z,934
2023-05-10T07:18:57.169Z,938.3333333333334
2023-05-10T07:21:57.963Z,940
2023-05-10T07:24:57.302Z,940.3333333333334
2023-05-10T07:27:57.126Z,920.3333333333334
2023-05-10T07:30:57.181Z,841.3333333333334
2023-05-10T07:33:57.887Z,885.3333333333334
2023-05-10T07:36:57.689Z,853
2023-05-10T07:39:57.360Z,807.6666666666666
2023-05-10T07:42:57.168Z,867
2023-05-10T07:45:57.253Z,924.3333333333334
2023-05-10T07:48:57.489Z,935
2023-05-10T07:51:57.109Z,941
2023-05-10T07:54:57.066Z,946.3333333333334
2023-05-10T07:57:56.925Z,946
2023-05-10T08:00:58.091Z,943.6666666666666
2023-05-10T08:03:57.214Z,953.3333333333334
2023-05-10T08:06:57.606Z,955.3333333333334
2023-05-10T08:09:56.683Z,955.6666666666666
2023-05-10T08:12:57.612Z,926.3333333333334
2023-05-10T08:15:57.574Z,641
2023-05-10T08:18:57.714Z,662
2023-05-10T08:21:56.588Z,512.3333333333334
2023-05-10T08:24:57.340Z,475.3333333333333
2023-05-10T08:27:57.023Z,465
2023-05-10T08:30:57.302Z,463.6666666666667
2023-05-10T08:33:57.408Z,447.6666666666667
2023-05-10T08:36:57.297Z,789
2023-05-10T08:39:57.400Z,922
2023-05-10T08:42:57.729Z,954
2023-05-10T08:45:57.470Z,957
2023-05-10T08:48:57.053Z,960
2023-05-10T08:51:57.878Z,958.3333333333334
2023-05-10T08:54:57.059Z,953
2023-05-10T08:57:57.608Z,954
2023-05-10T09:00:57.961Z,947
2023-05-10T09:03:57.922Z,941
2023-05-10T09:06:57.526Z,606.3333333333334
2023-05-10T09:09:57.717Z,359
2023-05-10T09:16:02.072Z,253.66666666666666
2023-05-10T09:18:56.757Z,335.3333333333333
2023-05-10T09:21:57.469Z,514.3333333333334
2023-05-10T09:24:57.358Z,651.6666666666666
2023-05-10T09:27:57.474Z,717
2023-05-10T09:30:58.219Z,773
2023-05-10T09:33:56.956Z,849.6666666666666
2023-05-10T09:36:57.869Z,820.3333333333334
2023-05-10T09:39:57.680Z,605.6666666666666
2023-05-10T09:42:57.722Z,926
2023-05-10T09:45:57.428Z,951.6666666666666
2023-05-10T09:48:57.445Z,961.3333333333334
2023-05-10T09:51:57.247Z,961
2023-05-10T09:54:57.126Z,959.6666666666666
2023-05-10T09:57:57.066Z,955.3333333333334
2023-05-10T10:00:57.176Z,952.3333333333334
2023-05-10T10:03:57.666Z,948.6666666666666
2023-05-10T10:06:57.353Z,932.3333333333334
2023-05-10T10:09:57.030Z,765.3333333333334
2023-05-10T10:12:57.726Z,775.3333333333334
2023-05-10T10:15:57.196Z,885
2023-05-10T10:18:57.528Z,823.3333333333334
2023-05-10T10:21:57.581Z,715.6666666666666
2023-05-10T10:24:57.720Z,642.3333333333334
2023-05-10T10:27:57.616Z,615.6666666666666
2023-05-10T10:30:57.615Z,620.6666666666666
2023-05-10T10:33:57.798Z,663.6666666666666
2023-05-10T10:36:57.669Z,763
2023-05-10T10:39:57.027Z,909
2023-05-10T10:42:57.588Z,950.6666666666666
2023-05-10T10:45:57.809Z,958.6666666666666
2023-05-10T10:48:57.038Z,962.3333333333334
2023-05-10T10:51:56.750Z,963.3333333333334
2023-05-10T10:54:58.227Z,964
2023-05-10T10:57:57.624Z,965.3333333333334
2023-05-10T11:00:57.909Z,965.6666666666666
2023-05-10T11:04:16.491Z,966
2023-05-10T11:06:57.379Z,963.3333333333334
2023-05-10T11:09:57.909Z,957.6666666666666
2023-05-10T11:12:57.567Z,956.3333333333334
2023-05-10T11:15:57.706Z,839.3333333333334
2023-05-10T11:18:57.138Z,622.3333333333334
2023-05-10T11:21:56.924Z,853.3333333333334
2023-05-10T11:24:57.525Z,814.3333333333334
2023-05-10T11:27:56.826Z,883.6666666666666
2023-05-10T11:30:57.947Z,949.3333333333334
2023-05-10T11:33:57.695Z,896
2023-05-10T11:36:57.451Z,767.6666666666666
2023-05-10T11:39:57.433Z,757
2023-05-10T11:42:56.763Z,733
2023-05-10T11:45:57.964Z,642.3333333333334
2023-05-10T11:48:57.358Z,695.6666666666666
2023-05-10T11:51:56.828Z,828
2023-05-10T11:54:57.284Z,911
2023-05-10T11:57:57.566Z,928.3333333333334
2023-05-10T12:00:58.248Z,945.6666666666666
2023-05-10T12:03:57.262Z,956
2023-05-10T12:06:57.424Z,960.6666666666666
2023-05-10T12:09:58.071Z,961.6666666666666
2023-05-10T12:12:57.689Z,961.3333333333334
2023-05-10T12:15:57.660Z,960
2023-05-10T12:18:57.137Z,959
2023-05-10T12:21:57.131Z,959.6666666666666
2023-05-10T12:24:57.941Z,960
2023-05-10T12:27:57.770Z,958.3333333333334
2023-05-10T12:30:57.018Z,954.3333333333334
2023-05-10T12:33:57.242Z,953.3333333333334
2023-05-10T12:36:57.087Z,953.6666666666666
2023-05-10T12:39:57.848Z,952.6666666666666
2023-05-10T12:42:56.977Z,948.3333333333334
2023-05-10T12:45:57.188Z,914.6666666666666
2023-05-10T12:49:07.549Z,859.3333333333334
2023-05-10T12:51:57.666Z,851
2023-05-10T12:54:57.603Z,715
2023-05-10T12:57:57.544Z,539.3333333333334
2023-05-10T13:00:58.305Z,452
2023-05-10T13:03:57.774Z,388
2023-05-10T13:06:57.148Z,350.3333333333333
2023-05-10T13:09:57.488Z,319.3333333333333
2023-05-10T13:12:57.894Z,288
2023-05-10T13:15:57.741Z,278.6666666666667
2023-05-10T13:18:57.459Z,284.6666666666667
2023-05-10T13:21:57.605Z,301.3333333333333
2023-05-10T13:24:57.783Z,333.3333333333333
2023-05-10T13:27:57.730Z,373.3333333333333
2023-05-10T13:30:57.539Z,421
2023-05-10T13:33:57.590Z,466.3333333333333
2023-05-10T13:36:57.421Z,511.3333333333333
2023-05-10T13:39:58.135Z,531.3333333333334
2023-05-10T13:42:57.189Z,557.3333333333334
2023-05-10T13:45:57.199Z,601.6666666666666
2023-05-10T13:48:57.599Z,639.6666666666666
2023-05-10T13:51:57.972Z,646
2023-05-10T13:54:57.574Z,658
2023-05-10T13:57:57.459Z,679.3333333333334
2023-05-10T14:00:58.137Z,698.3333333333334
2023-05-10T14:03:57.131Z,747.6666666666666
2023-05-10T14:06:58.051Z,800.6666666666666
2023-05-10T14:09:58.253Z,840
2023-05-10T14:12:57.514Z,848.6666666666666
2023-05-10T14:15:57.765Z,867
2023-05-10T14:18:57.356Z,892.6666666666666
2023-05-10T14:21:56.843Z,863.6666666666666
2023-05-10T14:24:57.820Z,883.6666666666666
2023-05-10T14:27:57.759Z,886.6666666666666
2023-05-10T14:30:57.606Z,854
2023-05-10T14:33:56.951Z,787.3333333333334
2023-05-10T14:36:57.871Z,748.6666666666666
2023-05-10T14:39:57.465Z,740
2023-05-10T14:42:58.171Z,738.6666666666666
2023-05-10T14:45:56.818Z,749
2023-05-10T14:48:58.021Z,764.6666666666666
2023-05-10T14:51:57.167Z,774
2023-05-10T14:54:57.727Z,705
2023-05-10T14:57:57.026Z,610
2023-05-10T15:00:57.876Z,506.6666666666667
2023-05-10T15:03:57.616Z,427.3333333333333
2023-05-10T15:06:57.116Z,416.3333333333333
2023-05-10T15:09:57.508Z,437
2023-05-10T15:12:57.561Z,470
2023-05-10T15:15:57.540Z,502.3333333333333
2023-05-10T15:18:57.437Z,527.6666666666666
2023-05-10T15:21:57.841Z,552.3333333333334
2023-05-10T15:24:57.522Z,597.3333333333334
2023-05-10T15:27:57.401Z,655
2023-05-10T15:30:57.754Z,701.6666666666666
2023-05-10T15:33:57.458Z,727
2023-05-10T15:36:57.925Z,728.6666666666666
2023-05-10T15:39:58.011Z,712
2023-05-10T15:42:57.811Z,677
2023-05-10T15:45:58.112Z,647
2023-05-10T15:48:57.799Z,618.3333333333334
2023-05-10T15:51:57.665Z,593.6666666666666
2023-05-10T15:54:57.696Z,583.6666666666666
2023-05-10T15:57:58.159Z,572.3333333333334
2023-05-10T16:00:58.387Z,555.3333333333334
2023-05-10T16:03:58.158Z,528
2023-05-10T16:06:58.059Z,506.3333333333333
2023-05-10T16:09:57.651Z,499
2023-05-10T16:12:57.983Z,488.3333333333333
2023-05-10T16:15:57.531Z,475.6666666666667
2023-05-10T16:18:57.875Z,460.3333333333333
2023-05-10T16:21:57.505Z,443
2023-05-10T16:24:57.397Z,426.3333333333333
2023-05-10T16:27:58.150Z,403.6666666666667
2023-05-10T16:30:58.671Z,379.3333333333333
2023-05-10T16:33:57.765Z,360.3333333333333
2023-05-10T16:36:57.462Z,343.3333333333333
2023-05-10T16:39:58.369Z,325.3333333333333
2023-05-10T16:42:57.750Z,308
2023-05-10T16:45:58.455Z,292.3333333333333
2023-05-10T16:48:57.747Z,278.3333333333333
2023-05-10T16:51:57.817Z,262.3333333333333
2023-05-10T16:54:57.536Z,247.66666666666666
2023-05-10T16:57:57.739Z,233.66666666666666
2023-05-10T17:00:58.245Z,222.66666666666666
2023-05-10T17:03:57.688Z,212
2023-05-10T17:06:58.087Z,205.66666666666666
2023-05-10T17:09:57.972Z,208.66666666666666
2023-05-10T17:12:57.205Z,212.66666666666666
2023-05-10T17:15:58.047Z,213.33333333333334
2023-05-10T17:18:57.185Z,205
2023-05-10T17:21:58.332Z,191.33333333333334
2023-05-10T17:24:57.499Z,180.66666666666666
2023-05-10T17:27:57.118Z,170.66666666666666
2023-05-10T17:30:58.247Z,159.66666666666666
2023-05-10T17:33:57.764Z,151
2023-05-10T17:36:57.320Z,143.66666666666666
2023-05-10T17:39:58.363Z,140.33333333333334
2023-05-10T17:42:57.762Z,132.33333333333334
2023-05-10T17:45:57.812Z,124.66666666666667
2023-05-10T17:48:57.762Z,116.33333333333333
2023-05-10T17:51:57.234Z,108.33333333333333
2023-05-10T17:54:57.909Z,99.66666666666667
2023-05-10T17:57:57.694Z,90.33333333333333
2023-05-10T18:00:58.605Z,80.66666666666667
2023-05-10T18:03:57.799Z,72.33333333333333
2023-05-10T18:06:58.354Z,63.333333333333336
2023-05-10T18:09:57.786Z,55.333333333333336
2023-05-10T18:12:57.885Z,48
2023-05-10T18:15:57.976Z,40.333333333333336
2023-05-10T18:18:57.006Z,32.333333333333336
2023-05-10T18:21:57.259Z,25.666666666666668
2023-05-10T18:24:56.937Z,20.666666666666668
2023-05-10T18:27:57.476Z,16.666666666666668
2023-05-10T18:30:57.742Z,13.666666666666666
2023-05-10T18:33:57.079Z,11.333333333333334
2023-05-10T18:36:57.069Z,11
2023-05-10T18:39:57.433Z,13.333333333333334
2023-05-10T18:42:56.997Z,13.333333333333334
2023-05-10T18:45:57.379Z,11.333333333333334
2023-05-10T18:48:57.074Z,6
2023-05-10T18:51:57.783Z,2.3333333333333335
2023-05-10T18:54:57.393Z,0.6666666666666666
2023-05-10T18:57:57.849Z,1.3333333333333333
2023-05-10T19:01:26.338Z,0
2023-05-10T19:03:57.692Z,0
2023-05-10T19:06:57.430Z,0
2023-05-10T19:09:57.983Z,0
2023-05-10T19:12:56.550Z,0.3333333333333333
2023-05-10T19:15:58.368Z,0
2023-05-10T19:18:57.768Z,0
2023-05-10T19:21:57.825Z,0
2023-05-10T19:24:57.516Z,0
2023-05-10T19:27:57.353Z,0
2023-05-10T19:30:57.258Z,0
2023-05-10T19:34:00.024Z,0
2023-05-10T19:36:58.184Z,0
2023-05-10T19:39:57.809Z,0
2023-05-10T19:42:57.409Z,0
2023-05-10T19:45:57.049Z,0
2023-05-10T19:48:57.063Z,0
2023-05-10T19:51:57.279Z,0
2023-05-10T19:54:57.271Z,0
2023-05-10T19:57:57.902Z,0
2023-05-10T20:00:58.163Z,0
2023-05-10T20:03:57.857Z,0.6666666666666666
2023-05-10T20:06:57.757Z,0
2023-05-10T20:09:57.313Z,0
2023-05-10T20:12:57.535Z,0
2023-05-10T20:15:57.731Z,0
2023-05-10T20:18:57.390Z,0.3333333333333333
2023-05-10T20:21:57.859Z,0
2023-05-10T20:24:58.702Z,0.3333333333333333
2023-05-10T20:27:57.953Z,0.3333333333333333
2023-05-10T20:30:58.426Z,0
2023-05-10T20:33:57.509Z,0
2023-05-10T20:36:57.587Z,0
2023-05-10T20:39:58.297Z,0.3333333333333333
2023-05-10T20:42:57.809Z,0
2023-05-10T20:45:57.916Z,0
2023-05-10T20:48:57.700Z,0
2023-05-10T20:51:57.267Z,0
2023-05-10T20:54:57.185Z,0
2023-05-10T20:57:58.071Z,0
2023-05-10T21:00:58.077Z,0
2023-05-10T21:03:57.648Z,0
2023-05-10T21:06:57.697Z,0
2023-05-10T21:09:57.100Z,0
2023-05-10T21:12:57.582Z,0
2023-05-10T21:15:58.173Z,0
2023-05-10T21:18:57.369Z,0
2023-05-10T21:21:58.116Z,0
2023-05-10T21:24:57.920Z,0.3333333333333333
2023-05-10T21:27:57.920Z,0
2023-05-10T21:30:58.127Z,0.3333333333333333
2023-05-10T21:33:57.628Z,0
2023-05-10T21:36:57.578Z,0
2023-05-10T21:39:57.530Z,0
2023-05-10T21:42:56.876Z,0
2023-05-10T21:45:57.232Z,0
2023-05-10T21:48:57.424Z,0
2023-05-10T21:51:56.864Z,0
2023-05-10T21:54:58.181Z,0.3333333333333333
2023-05-10T21:57:57.696Z,0.3333333333333333
2023-05-10T22:00:57.963Z,0
2023-05-10T22:03:57.542Z,0
2023-05-10T22:06:56.868Z,0
2023-05-10T22:09:57.016Z,0.3333333333333333
2023-05-10T22:12:57.007Z,0
2023-05-10T22:15:56.695Z,0
2023-05-10T22:18:57.652Z,0
2023-05-10T22:21:57.411Z,0
2023-05-10T22:24:57.632Z,0
2023-05-10T22:27:57.648Z,0
2023-05-10T22:30:57.588Z,0
2023-05-10T22:33:57.512Z,0
2023-05-10T22:36:56.913Z,0
2023-05-10T22:39:57.566Z,0
2023-05-10T22:42:57.485Z,0
2023-05-10T22:45:57.064Z,0
2023-05-10T22:48:57.372Z,0.3333333333333333
2023-05-10T22:51:56.922Z,0
2023-05-10T22:54:57.507Z,0
2023-05-10T22:57:56.645Z,0
2023-05-10T23:00:57.832Z,0
2023-05-10T23:03:56.886Z,0
2023-05-10T23:06:57.098Z,0
2023-05-10T23:09:57.583Z,0.3333333333333333
2023-05-10T23:12:57.298Z,0
2023-05-10T23:15:57.067Z,0
2023-05-10T23:18:56.923Z,0
2023-05-10T23:21:57.649Z,0
2023-05-10T23:24:57.370Z,0
2023-05-10T23:27:56.977Z,0
2023-05-10T23:30:57.055Z,0
2023-05-10T23:36:57.140Z,0
2023-05-10T23:39:57.721Z,0
2023-05-10T23:42:57.278Z,0
2023-05-10T23:45:58.092Z,0
2023-05-10T23:48:57.671Z,0
2023-05-10T23:51:56.756Z,0.3333333333333333
2023-05-10T23:54:56.743Z,0
2023-05-10T23:57:56.794Z,0.3333333333333333
